Time,TemperatureF,DewpointF,PressureIn,WindDirection,WindDirectionDegrees,WindSpeedMPH,WindSpeedGustMPH,Humidity,HourlyPrecipIn,Conditions,Clouds,dailyrainin,SoftwareType,DateUTC
2013-03-27 00:00:00,42.8,37.8,29.92,NW,315,0.0,2.0,82,0.00,,,0.00,meteohub,2013-03-27 07:00:00,
2013-03-27 00:06:00,42.6,37.8,29.92,NW,315,0.0,1.0,83,0.00,,,0.00,meteohub,2013-03-27 07:06:00,
2013-03-27 00:12:00,42.6,37.8,29.92,NW,315,0.0,1.0,83,0.00,,,0.00,meteohub,2013-03-27 07:12:00,
2013-03-27 00:18:00,42.4,37.6,29.92,SE,135,0.0,0.0,83,0.00,,,0.00,meteohub,2013-03-27 07:18:00,
2013-03-27 00:24:00,42.3,37.4,29.92,SE,135,0.0,0.0,83,0.00,,,0.00,meteohub,2013-03-27 07:24:00,
2013-03-27 00:30:00,42.1,37.2,29.92,West,270,0.0,0.0,83,0.00,,,0.00,meteohub,2013-03-27 07:30:00,
2013-03-27 00:36:00,41.7,36.9,29.92,SW,225,2.0,2.0,83,0.00,,,0.00,meteohub,2013-03-27 07:36:00,
2013-03-27 00:42:00,41.5,36.7,29.91,SW,225,0.0,2.0,83,0.00,,,0.00,meteohub,2013-03-27 07:42:00,
2013-03-27 00:47:00,41.4,36.5,29.92,SW,225,0.0,2.0,83,0.00,,,0.00,meteohub,2013-03-27 07:47:00,
2013-03-27 00:52:00,41.0,36.3,29.92,SW,225,0.0,2.0,83,0.00,,,0.00,meteohub,2013-03-27 07:52:00,
2013-03-27 00:57:00,40.6,36.1,29.92,SW,225,0.0,2.0,84,0.00,,,0.00,meteohub,2013-03-27 07:57:00,
2013-03-27 01:02:00,40.1,36.0,29.91,SW,225,0.0,0.0,85,0.00,,,0.00,meteohub,2013-03-27 08:02:00,
2013-03-27 01:09:00,39.6,35.4,29.91,SW,225,1.0,0.0,85,0.00,,,0.00,meteohub,2013-03-27 08:09:00,
2013-03-27 01:15:00,39.2,35.1,29.92,SW,225,1.0,1.0,85,0.00,,,0.00,meteohub,2013-03-27 08:15:00,
2013-03-27 01:21:00,38.5,34.7,29.92,SW,225,0.0,2.0,86,0.00,,,0.00,meteohub,2013-03-27 08:21:00,
2013-03-27 01:27:00,38.3,34.7,29.92,SW,225,0.0,2.0,87,0.00,,,0.00,meteohub,2013-03-27 08:27:00,
2013-03-27 01:33:00,37.8,34.2,29.92,SW,225,0.0,1.0,87,0.00,,,0.00,meteohub,2013-03-27 08:33:00,
2013-03-27 01:39:00,37.8,34.5,29.92,SW,225,0.0,1.0,88,0.00,,,0.00,meteohub,2013-03-27 08:39:00,
2013-03-27 01:45:00,37.4,34.2,29.91,SW,225,0.0,0.0,88,0.00,,,0.00,meteohub,2013-03-27 08:45:00,
2013-03-27 01:51:00,37.4,34.5,29.91,SW,225,0.0,1.0,89,0.00,,,0.00,meteohub,2013-03-27 08:51:00,
2013-03-27 01:57:00,37.2,33.1,29.91,SW,225,0.0,1.0,85,0.00,,,0.00,meteohub,2013-03-27 08:57:00,
2013-03-27 02:02:00,37.0,33.3,29.91,SW,225,1.0,1.0,86,0.00,,,0.00,meteohub,2013-03-27 09:02:00,
2013-03-27 02:07:00,36.9,33.1,29.91,SW,225,0.0,1.0,86,0.00,,,0.00,meteohub,2013-03-27 09:07:00,
2013-03-27 02:12:00,36.7,32.9,29.91,SW,225,0.0,1.0,86,0.00,,,0.00,meteohub,2013-03-27 09:12:00,
2013-03-27 02:17:00,36.3,32.5,29.91,SW,225,1.0,1.0,86,0.00,,,0.00,meteohub,2013-03-27 09:17:00,
2013-03-27 02:22:00,36.1,32.4,29.91,SW,225,0.0,2.0,86,0.00,,,0.00,meteohub,2013-03-27 09:22:00,
2013-03-27 02:27:00,35.8,32.0,29.91,SW,225,0.0,2.0,86,0.00,,,0.00,meteohub,2013-03-27 09:27:00,
2013-03-27 02:32:00,35.6,32.2,29.91,SW,225,1.0,2.0,87,0.00,,,0.00,meteohub,2013-03-27 09:32:00,
2013-03-27 02:37:00,35.2,32.0,29.91,SW,225,2.0,2.0,88,0.00,,,0.00,meteohub,2013-03-27 09:37:00,
2013-03-27 02:42:00,35.1,31.8,29.91,SW,225,1.0,2.0,88,0.00,,,0.00,meteohub,2013-03-27 09:42:00,
2013-03-27 02:47:00,35.1,31.8,29.91,SW,225,1.0,2.0,88,0.00,,,0.00,meteohub,2013-03-27 09:47:00,
2013-03-27 02:52:00,34.9,31.6,29.91,SW,225,1.0,2.0,88,0.00,,,0.00,meteohub,2013-03-27 09:52:00,
2013-03-27 02:58:00,34.5,31.6,29.91,SW,225,1.0,2.0,89,0.00,,,0.00,meteohub,2013-03-27 09:58:00,
2013-03-27 03:04:00,34.3,31.5,29.91,SW,225,1.0,2.0,89,0.00,,,0.00,meteohub,2013-03-27 10:04:00,
2013-03-27 03:10:00,34.3,31.5,29.91,SW,225,0.0,2.0,89,0.00,,,0.00,meteohub,2013-03-27 10:10:00,
2013-03-27 03:16:00,34.2,31.3,29.91,SW,225,0.0,2.0,89,0.00,,,0.00,meteohub,2013-03-27 10:16:00,
2013-03-27 03:22:00,34.3,31.5,29.91,SW,225,0.0,1.0,89,0.00,,,0.00,meteohub,2013-03-27 10:22:00,
2013-03-27 03:28:00,34.3,31.6,29.90,SW,225,0.0,1.0,90,0.00,,,0.00,meteohub,2013-03-27 10:28:00,
2013-03-27 03:34:00,34.2,31.5,29.90,SW,225,0.0,1.0,90,0.00,,,0.00,meteohub,2013-03-27 10:34:00,
2013-03-27 03:40:00,34.2,31.5,29.90,SE,135,0.0,1.0,90,0.00,,,0.00,meteohub,2013-03-27 10:40:00,
2013-03-27 03:46:00,34.2,31.5,29.90,South,180,0.0,1.0,90,0.00,,,0.00,meteohub,2013-03-27 10:46:00,
2013-03-27 03:52:00,34.0,31.3,29.90,South,180,0.0,1.0,90,0.00,,,0.00,meteohub,2013-03-27 10:52:00,
2013-03-27 03:57:00,33.8,31.1,29.91,South,180,0.0,1.0,90,0.00,,,0.00,meteohub,2013-03-27 10:57:00,
2013-03-27 04:03:00,33.6,31.5,29.91,South,180,0.0,1.0,92,0.00,,,0.00,meteohub,2013-03-27 11:03:00,
2013-03-27 04:09:00,33.4,31.3,29.91,South,180,0.0,0.0,92,0.00,,,0.00,meteohub,2013-03-27 11:09:00,
2013-03-27 04:15:00,33.3,31.1,29.90,South,180,0.0,1.0,92,0.00,,,0.00,meteohub,2013-03-27 11:15:00,
2013-03-27 04:21:00,33.1,31.1,29.90,SE,135,1.0,2.0,92,0.00,,,0.00,meteohub,2013-03-27 11:21:00,
2013-03-27 04:27:00,32.7,30.7,29.90,SW,225,1.0,2.0,92,0.00,,,0.00,meteohub,2013-03-27 11:27:00,
2013-03-27 04:33:00,32.7,30.7,29.90,South,180,1.0,2.0,92,0.00,,,0.00,meteohub,2013-03-27 11:33:00,
2013-03-27 04:39:00,32.7,30.7,29.90,South,180,0.0,2.0,92,0.00,,,0.00,meteohub,2013-03-27 11:39:00,
2013-03-27 04:45:00,32.5,30.6,29.90,SE,135,2.0,2.0,92,0.00,,,0.00,meteohub,2013-03-27 11:45:00,
2013-03-27 04:51:00,32.5,30.6,29.91,SE,135,2.0,2.0,92,0.00,,,0.00,meteohub,2013-03-27 11:51:00,
2013-03-27 04:57:00,32.4,30.4,29.91,SE,135,0.0,2.0,92,0.00,,,0.00,meteohub,2013-03-27 11:57:00,
2013-03-27 05:02:00,32.2,30.2,29.91,SE,135,0.0,2.0,92,0.00,,,0.00,meteohub,2013-03-27 12:02:00,
2013-03-27 05:07:00,32.0,30.0,29.91,SW,225,2.0,2.0,92,0.00,,,0.00,meteohub,2013-03-27 12:07:00,
2013-03-27 05:12:00,31.8,30.0,29.90,South,180,1.0,2.0,93,0.00,,,0.00,meteohub,2013-03-27 12:12:00,
2013-03-27 05:17:00,31.8,30.0,29.91,SE,135,2.0,2.0,93,0.00,,,0.00,meteohub,2013-03-27 12:17:00,
2013-03-27 05:23:00,31.6,29.8,29.91,SE,135,2.0,2.0,93,0.00,,,0.00,meteohub,2013-03-27 12:23:00,
2013-03-27 05:30:00,31.5,29.7,29.91,East,90,2.0,2.0,93,0.00,,,0.00,meteohub,2013-03-27 12:30:00,
2013-03-27 05:36:00,31.5,30.0,29.90,East,90,2.0,2.0,94,0.00,,,0.00,meteohub,2013-03-27 12:36:00,
2013-03-27 05:42:00,31.5,30.0,29.90,East,90,2.0,3.0,94,0.00,,,0.00,meteohub,2013-03-27 12:42:00,
2013-03-27 05:47:00,31.6,30.2,29.90,SE,135,2.0,3.0,94,0.00,,,0.00,meteohub,2013-03-27 12:47:00,
2013-03-27 05:52:00,31.6,30.2,29.91,NE,45,0.0,3.0,94,0.00,,,0.00,meteohub,2013-03-27 12:52:00,
2013-03-27 05:57:00,31.6,30.2,29.90,SE,135,1.0,3.0,94,0.00,,,0.00,meteohub,2013-03-27 12:57:00,
2013-03-27 06:02:00,31.6,30.2,29.90,East,90,2.0,3.0,94,0.00,,,0.00,meteohub,2013-03-27 13:02:00,
2013-03-27 06:07:00,31.8,30.4,29.90,East,90,2.0,2.0,94,0.00,,,0.00,meteohub,2013-03-27 13:07:00,
2013-03-27 06:12:00,32.0,30.6,29.90,SW,225,2.0,2.0,94,0.00,,,0.00,meteohub,2013-03-27 13:12:00,
2013-03-27 06:17:00,32.0,30.6,29.91,South,180,1.0,2.0,94,0.00,,,0.00,meteohub,2013-03-27 13:17:00,
2013-03-27 06:22:00,32.0,30.6,29.91,East,90,1.0,2.0,94,0.00,,,0.00,meteohub,2013-03-27 13:22:00,
2013-03-27 06:27:00,32.0,30.6,29.90,SW,225,1.0,2.0,94,0.00,,,0.00,meteohub,2013-03-27 13:27:00,
2013-03-27 06:32:00,31.8,30.6,29.90,SE,135,0.0,2.0,95,0.00,,,0.00,meteohub,2013-03-27 13:32:00,
2013-03-27 06:37:00,31.8,30.6,29.91,SE,135,2.0,2.0,95,0.00,,,0.00,meteohub,2013-03-27 13:37:00,
2013-03-27 06:43:00,31.6,30.4,29.91,SE,135,0.0,3.0,95,0.00,,,0.00,meteohub,2013-03-27 13:43:00,
2013-03-27 06:49:00,31.8,30.6,29.91,ESE,113,2.0,3.0,95,0.00,,,0.00,meteohub,2013-03-27 13:49:00,
2013-03-27 06:55:00,32.0,30.6,29.91,ESE,113,3.0,3.0,94,0.00,,,0.00,meteohub,2013-03-27 13:55:00,
2013-03-27 07:01:00,32.2,30.6,29.90,SE,135,0.0,4.0,94,0.00,,,0.00,meteohub,2013-03-27 14:01:00,
2013-03-27 07:07:00,32.4,30.7,29.91,SE,135,2.0,4.0,94,0.00,,,0.00,meteohub,2013-03-27 14:07:00,
2013-03-27 07:12:00,32.5,30.9,29.91,SE,135,2.0,4.0,94,0.00,,,0.00,meteohub,2013-03-27 14:12:00,
2013-03-27 07:17:00,32.7,31.1,29.90,SE,135,1.0,2.0,94,0.00,,,0.00,meteohub,2013-03-27 14:17:00,
2013-03-27 07:23:00,32.9,31.3,29.91,SE,135,0.0,4.0,94,0.00,,,0.00,meteohub,2013-03-27 14:23:00,
2013-03-27 07:29:00,33.3,31.6,29.91,East,90,2.0,4.0,94,0.00,,,0.00,meteohub,2013-03-27 14:29:00,
2013-03-27 07:35:00,33.6,32.0,29.91,East,90,4.0,4.0,94,0.00,,,0.00,meteohub,2013-03-27 14:35:00,
2013-03-27 07:41:00,34.0,32.2,29.90,East,90,3.0,4.0,93,0.00,,,0.00,meteohub,2013-03-27 14:41:00,
2013-03-27 07:47:00,34.2,32.4,29.91,South,180,2.0,4.0,93,0.00,,,0.00,meteohub,2013-03-27 14:47:00,
2013-03-27 07:52:00,34.5,32.7,29.91,East,90,2.0,4.0,93,0.00,,,0.00,meteohub,2013-03-27 14:52:00,
2013-03-27 07:57:00,34.7,32.9,29.91,East,90,2.0,4.0,93,0.00,,,0.00,meteohub,2013-03-27 14:57:00,
2013-03-27 08:04:00,35.8,33.6,29.92,SE,135,2.0,3.0,92,0.00,,,0.00,meteohub,2013-03-27 15:04:00,
2013-03-27 08:10:00,36.1,34.0,29.92,SW,225,2.0,3.0,92,0.00,,,0.00,meteohub,2013-03-27 15:10:00,
2013-03-27 08:16:00,36.7,34.3,29.91,East,90,4.0,4.0,91,0.00,,,0.00,meteohub,2013-03-27 15:16:00,
2013-03-27 08:22:00,38.1,36.9,29.91,East,90,5.0,5.0,95,0.00,,,0.00,meteohub,2013-03-27 15:22:00,
2013-03-27 08:27:00,39.0,37.4,29.91,SE,135,3.0,5.0,94,0.00,,,0.00,meteohub,2013-03-27 15:27:00,
2013-03-27 08:32:00,39.9,37.8,29.91,SE,135,3.0,5.0,92,0.00,,,0.00,meteohub,2013-03-27 15:32:00,
2013-03-27 08:37:00,41.2,38.5,29.91,South,180,3.0,5.0,90,0.00,,,0.00,meteohub,2013-03-27 15:37:00,
2013-03-27 08:42:00,41.9,38.7,29.91,SE,135,4.0,4.0,88,0.00,,,0.00,meteohub,2013-03-27 15:42:00,
2013-03-27 08:47:00,42.6,38.7,29.91,East,90,4.0,4.0,86,0.00,,,0.00,meteohub,2013-03-27 15:47:00,
2013-03-27 08:52:00,43.2,38.3,29.91,East,90,4.0,4.0,83,0.00,,,0.00,meteohub,2013-03-27 15:52:00,
2013-03-27 08:57:00,43.7,38.3,29.91,East,90,3.0,4.0,81,0.00,,,0.00,meteohub,2013-03-27 15:57:00,
2013-03-27 09:02:00,44.6,38.5,29.91,ESE,113,4.0,7.0,79,0.00,,,0.00,meteohub,2013-03-27 16:02:00,
2013-03-27 09:09:00,44.8,38.3,29.90,NE,45,4.0,7.0,78,0.00,,,0.00,meteohub,2013-03-27 16:09:00,
2013-03-27 09:15:00,45.5,38.7,29.91,SE,135,4.0,8.0,77,0.00,,,0.00,meteohub,2013-03-27 16:15:00,
2013-03-27 09:21:00,46.0,38.8,29.90,East,90,8.0,9.0,76,0.00,,,0.00,meteohub,2013-03-27 16:21:00,
2013-03-27 09:27:00,46.6,39.0,29.90,East,90,6.0,9.0,75,0.00,,,0.00,meteohub,2013-03-27 16:27:00,
2013-03-27 09:32:00,46.6,38.7,29.91,NE,45,4.0,8.0,74,0.00,,,0.00,meteohub,2013-03-27 16:32:00,
2013-03-27 09:37:00,47.1,39.2,29.91,NE,45,2.0,8.0,74,0.00,,,0.00,meteohub,2013-03-27 16:37:00,
2013-03-27 09:43:00,47.3,39.0,29.91,NE,45,6.0,8.0,73,0.00,,,0.00,meteohub,2013-03-27 16:43:00,
2013-03-27 09:49:00,47.7,39.4,29.91,North,0,3.0,5.0,73,0.00,,,0.00,meteohub,2013-03-27 16:49:00,
2013-03-27 09:55:00,48.7,40.5,29.91,East,90,5.0,6.0,73,0.00,,,0.00,meteohub,2013-03-27 16:55:00,
2013-03-27 10:02:00,49.1,40.5,29.91,SE,135,2.0,5.0,72,0.00,,,0.00,meteohub,2013-03-27 17:02:00,
2013-03-27 10:07:00,49.8,41.2,29.91,East,90,4.0,5.0,72,0.00,,,0.00,meteohub,2013-03-27 17:07:00,
2013-03-27 10:13:00,50.0,40.6,29.91,East,90,4.0,6.0,70,0.00,,,0.00,meteohub,2013-03-27 17:13:00,
2013-03-27 10:19:00,50.2,40.1,29.91,NE,45,8.0,8.0,68,0.00,,,0.00,meteohub,2013-03-27 17:19:00,
2013-03-27 10:25:00,50.2,39.6,29.91,East,90,4.0,8.0,67,0.00,,,0.00,meteohub,2013-03-27 17:25:00,
2013-03-27 10:31:00,50.9,40.3,29.90,East,90,7.0,8.0,67,0.00,,,0.00,meteohub,2013-03-27 17:31:00,
2013-03-27 10:37:00,51.3,40.3,29.91,East,90,10.0,10.0,66,0.00,,,0.00,meteohub,2013-03-27 17:37:00,
2013-03-27 10:42:00,52.0,40.1,29.90,SE,135,4.0,10.0,64,0.00,,,0.00,meteohub,2013-03-27 17:42:00,
2013-03-27 10:47:00,52.3,40.1,29.90,NE,45,3.0,10.0,63,0.00,,,0.00,meteohub,2013-03-27 17:47:00,
2013-03-27 10:52:00,52.3,39.7,29.90,NE,45,2.0,10.0,62,0.00,,,0.00,meteohub,2013-03-27 17:52:00,
2013-03-27 10:57:00,52.5,39.9,29.90,East,90,4.0,6.0,62,0.00,,,0.00,meteohub,2013-03-27 17:57:00,
2013-03-27 11:02:00,52.5,39.4,29.90,SE,135,2.0,6.0,61,0.00,,,0.00,meteohub,2013-03-27 18:02:00,
2013-03-27 11:08:00,53.1,39.9,29.89,SW,225,2.0,6.0,61,0.00,,,0.00,meteohub,2013-03-27 18:08:00,
2013-03-27 11:14:00,53.2,39.7,29.89,South,180,2.0,6.0,60,0.00,,,0.00,meteohub,2013-03-27 18:14:00,
2013-03-27 11:20:00,54.0,40.5,29.89,South,180,4.0,6.0,60,0.00,,,0.00,meteohub,2013-03-27 18:20:00,
2013-03-27 11:26:00,54.9,40.3,29.89,North,0,2.0,6.0,58,0.00,,,0.00,meteohub,2013-03-27 18:26:00,
2013-03-27 11:32:00,55.6,40.1,29.90,East,90,3.0,6.0,56,0.00,,,0.00,meteohub,2013-03-27 18:32:00,
2013-03-27 11:37:00,56.5,40.5,29.89,East,90,3.0,4.0,55,0.00,,,0.00,meteohub,2013-03-27 18:37:00,
2013-03-27 11:42:00,56.8,40.5,29.89,South,180,9.0,9.0,54,0.00,,,0.00,meteohub,2013-03-27 18:42:00,
2013-03-27 11:47:00,57.4,39.4,29.89,NW,315,3.0,9.0,51,0.00,,,0.00,meteohub,2013-03-27 18:47:00,
2013-03-27 11:52:00,57.9,39.9,29.89,East,90,8.0,9.0,51,0.00,,,0.00,meteohub,2013-03-27 18:52:00,
2013-03-27 11:57:00,58.3,39.2,29.88,SE,135,8.0,11.0,49,0.00,,,0.00,meteohub,2013-03-27 18:57:00,
2013-03-27 12:02:00,58.5,39.4,29.88,SSE,158,5.0,12.0,49,0.00,,,0.00,meteohub,2013-03-27 19:02:00,
2013-03-27 12:07:00,58.8,39.2,29.88,East,90,4.0,12.0,48,0.00,,,0.00,meteohub,2013-03-27 19:07:00,
2013-03-27 12:12:00,58.1,37.9,29.88,SE,135,5.0,13.0,47,0.00,,,0.00,meteohub,2013-03-27 19:12:00,
2013-03-27 12:17:00,58.6,39.6,29.88,ENE,68,4.0,13.0,49,0.00,,,0.00,meteohub,2013-03-27 19:17:00,
2013-03-27 12:22:00,57.7,37.0,29.88,East,90,11.0,13.0,46,0.00,,,0.00,meteohub,2013-03-27 19:22:00,
2013-03-27 12:27:00,56.3,36.3,29.88,SE,135,5.0,12.0,47,0.00,,,0.00,meteohub,2013-03-27 19:27:00,
2013-03-27 12:32:00,56.5,37.6,29.88,SE,135,2.0,12.0,49,0.00,,,0.00,meteohub,2013-03-27 19:32:00,
2013-03-27 12:37:00,56.7,38.3,29.88,WSW,248,5.0,12.0,50,0.00,,,0.00,meteohub,2013-03-27 19:37:00,
2013-03-27 12:43:00,57.0,38.1,29.88,SE,135,2.0,6.0,49,0.00,,,0.00,meteohub,2013-03-27 19:43:00,
2013-03-27 12:49:00,57.9,36.1,29.88,South,180,2.0,5.0,44,0.00,,,0.00,meteohub,2013-03-27 19:49:00,
2013-03-27 12:55:00,58.1,35.1,29.88,West,270,2.0,4.0,42,0.00,,,0.00,meteohub,2013-03-27 19:55:00,
2013-03-27 13:01:00,58.6,35.6,29.88,SW,225,4.0,5.0,42,0.00,,,0.00,meteohub,2013-03-27 20:01:00,
2013-03-27 13:07:00,58.6,35.1,29.88,SE,135,4.0,6.0,41,0.00,,,0.00,meteohub,2013-03-27 20:07:00,
2013-03-27 13:13:00,58.8,35.2,29.87,SW,225,5.0,6.0,41,0.00,,,0.00,meteohub,2013-03-27 20:13:00,
2013-03-27 13:19:00,60.1,36.3,29.87,South,180,3.0,7.0,41,0.00,,,0.00,meteohub,2013-03-27 20:19:00,
2013-03-27 13:26:00,59.9,35.6,29.87,NNE,23,4.0,9.0,40,0.00,,,0.00,meteohub,2013-03-27 20:26:00,
2013-03-27 13:32:00,59.4,35.1,29.87,South,180,4.0,9.0,40,0.00,,,0.00,meteohub,2013-03-27 20:32:00,
2013-03-27 13:37:00,59.2,34.9,29.87,South,180,5.0,9.0,40,0.00,,,0.00,meteohub,2013-03-27 20:37:00,
2013-03-27 13:42:00,59.0,34.7,29.87,SW,225,6.0,7.0,40,0.00,,,0.00,meteohub,2013-03-27 20:42:00,
2013-03-27 13:47:00,58.5,35.4,29.87,NW,315,8.0,8.0,42,0.00,,,0.00,meteohub,2013-03-27 20:47:00,
2013-03-27 13:52:00,58.3,35.2,29.87,South,180,4.0,9.0,42,0.00,,,0.00,meteohub,2013-03-27 20:52:00,
2013-03-27 13:57:00,58.6,35.6,29.87,NE,45,2.0,9.0,42,0.00,,,0.00,meteohub,2013-03-27 20:57:00,
2013-03-27 14:02:00,58.8,35.8,29.86,SE,135,4.0,9.0,42,0.00,,,0.00,meteohub,2013-03-27 21:02:00,
2013-03-27 14:08:00,59.4,35.6,29.86,SW,225,4.0,8.0,41,0.00,,,0.00,meteohub,2013-03-27 21:08:00,
2013-03-27 14:14:00,59.7,36.0,29.86,West,270,2.0,8.0,41,0.00,,,0.00,meteohub,2013-03-27 21:14:00,
2013-03-27 14:20:00,60.6,36.1,29.87,SE,135,6.0,6.0,40,0.00,,,0.00,meteohub,2013-03-27 21:20:00,
2013-03-27 14:27:00,61.3,34.9,29.86,SW,225,6.0,6.0,37,0.00,,,0.00,meteohub,2013-03-27 21:27:00,
2013-03-27 14:33:00,60.4,32.7,29.86,South,180,2.0,9.0,35,0.00,,,0.00,meteohub,2013-03-27 21:33:00,
2013-03-27 14:39:00,59.9,33.6,29.86,SW,225,4.0,9.0,37,0.00,,,0.00,meteohub,2013-03-27 21:39:00,
2013-03-27 14:45:00,59.7,33.4,29.86,SE,135,2.0,6.0,37,0.00,,,0.00,meteohub,2013-03-27 21:45:00,
2013-03-27 14:51:00,58.5,38.3,29.86,NW,315,4.0,10.0,47,0.00,,,0.00,meteohub,2013-03-27 21:51:00,
2013-03-27 14:57:00,57.4,38.8,29.87,South,180,4.0,10.0,50,0.00,,,0.00,meteohub,2013-03-27 21:57:00,
2013-03-27 15:02:00,56.3,38.8,29.86,South,180,8.0,10.0,52,0.00,,,0.00,meteohub,2013-03-27 22:02:00,
2013-03-27 15:07:00,55.6,40.6,29.86,NW,315,7.0,9.0,57,0.00,,,0.00,meteohub,2013-03-27 22:07:00,
2013-03-27 15:12:00,54.9,41.2,29.88,West,270,9.0,9.0,60,0.00,,,0.00,meteohub,2013-03-27 22:12:00,
2013-03-27 15:17:00,54.0,41.2,29.88,South,180,6.0,9.0,62,0.00,,,0.00,meteohub,2013-03-27 22:17:00,
2013-03-27 15:24:00,52.5,42.3,29.89,SE,135,5.0,9.0,68,0.00,,,0.00,meteohub,2013-03-27 22:24:00,
2013-03-27 15:30:00,50.4,42.8,29.90,SW,225,4.0,9.0,75,0.02,,,0.04,meteohub,2013-03-27 22:30:00,
2013-03-27 15:36:00,49.3,43.7,29.89,NW,315,2.0,8.0,81,0.06,,,0.06,meteohub,2013-03-27 22:36:00,
2013-03-27 15:42:00,49.1,44.8,29.88,NE,45,7.0,8.0,85,0.07,,,0.07,meteohub,2013-03-27 22:42:00,
2013-03-27 15:47:00,49.8,46.4,29.88,NE,45,6.0,7.0,88,0.08,,,0.08,meteohub,2013-03-27 22:47:00,
2013-03-27 15:52:00,50.9,47.5,29.88,North,0,2.0,8.0,88,0.08,,,0.08,meteohub,2013-03-27 22:52:00,
2013-03-27 15:58:00,52.2,48.0,29.88,North,0,7.0,8.0,86,0.08,,,0.08,meteohub,2013-03-27 22:58:00,
2013-03-27 16:04:00,52.5,47.1,29.88,NE,45,8.0,8.0,82,0.08,,,0.08,meteohub,2013-03-27 23:04:00,
2013-03-27 16:10:00,53.1,46.8,29.88,NE,45,5.0,8.0,79,0.08,,,0.08,meteohub,2013-03-27 23:10:00,
2013-03-27 16:16:00,53.4,45.0,29.88,NE,45,4.0,8.0,73,0.08,,,0.08,meteohub,2013-03-27 23:16:00,
2013-03-27 16:22:00,54.0,44.4,29.88,North,0,5.0,7.0,70,0.07,,,0.08,meteohub,2013-03-27 23:22:00,
2013-03-27 16:29:00,54.3,44.1,29.88,NE,45,4.0,7.0,68,0.06,,,0.08,meteohub,2013-03-27 23:29:00,
2013-03-27 16:35:00,54.5,43.7,29.87,North,0,4.0,7.0,67,0.04,,,0.08,meteohub,2013-03-27 23:35:00,
2013-03-27 16:41:00,54.7,43.5,29.88,North,0,5.0,7.0,66,0.01,,,0.08,meteohub,2013-03-27 23:41:00,
2013-03-27 16:47:00,54.9,43.0,29.87,North,0,7.0,7.0,64,0.00,,,0.08,meteohub,2013-03-27 23:47:00,
2013-03-27 16:53:00,54.7,43.2,29.88,North,0,9.0,9.0,65,0.00,,,0.08,meteohub,2013-03-27 23:53:00,
2013-03-27 16:59:00,55.0,43.5,29.87,North,0,7.0,12.0,65,0.00,,,0.08,meteohub,2013-03-27 23:59:00,
2013-03-27 17:05:00,55.0,43.2,29.87,NE,45,3.0,12.0,64,0.00,,,0.08,meteohub,2013-03-28 00:05:00,
2013-03-27 17:11:00,55.4,43.0,29.87,North,0,2.0,8.0,63,0.00,,,0.08,meteohub,2013-03-28 00:11:00,
2013-03-27 17:17:00,55.8,43.3,29.87,WNW,293,5.0,8.0,63,0.00,,,0.08,meteohub,2013-03-28 00:17:00,
2013-03-27 17:22:00,55.8,43.0,29.87,North,0,5.0,8.0,62,0.00,,,0.08,meteohub,2013-03-28 00:22:00,
2013-03-27 17:27:00,55.8,43.0,29.87,NE,45,6.0,8.0,62,0.00,,,0.08,meteohub,2013-03-28 00:27:00,
2013-03-27 17:32:00,55.4,42.3,29.88,North,0,6.0,9.0,61,0.00,,,0.08,meteohub,2013-03-28 00:32:00,
2013-03-27 17:37:00,54.7,41.0,29.88,NE,45,9.0,9.0,60,0.00,,,0.08,meteohub,2013-03-28 00:37:00,
2013-03-27 17:43:00,54.0,40.8,29.88,North,0,5.0,9.0,61,0.00,,,0.08,meteohub,2013-03-28 00:43:00,
2013-03-27 17:49:00,53.6,40.5,29.88,North,0,2.0,9.0,61,0.00,,,0.08,meteohub,2013-03-28 00:49:00,
2013-03-27 17:55:00,53.4,40.6,29.88,North,0,4.0,8.0,62,0.00,,,0.08,meteohub,2013-03-28 00:55:00,
2013-03-27 18:01:00,53.4,40.6,29.88,North,0,4.0,7.0,62,0.00,,,0.08,meteohub,2013-03-28 01:01:00,
2013-03-27 18:07:00,53.2,41.0,29.88,NE,45,4.0,7.0,63,0.00,,,0.08,meteohub,2013-03-28 01:07:00,
2013-03-27 18:12:00,53.1,40.5,29.88,North,0,5.0,7.0,62,0.00,,,0.08,meteohub,2013-03-28 01:12:00,
2013-03-27 18:18:00,52.7,40.1,29.89,NW,315,6.0,7.0,62,0.00,,,0.08,meteohub,2013-03-28 01:18:00,
2013-03-27 18:24:00,52.7,40.5,29.88,North,0,4.0,7.0,63,0.00,,,0.08,meteohub,2013-03-28 01:24:00,
2013-03-27 18:30:00,52.7,41.2,29.89,North,0,2.0,6.0,65,0.00,,,0.08,meteohub,2013-03-28 01:30:00,
2013-03-27 18:36:00,52.7,41.2,29.89,North,0,4.0,6.0,65,0.00,,,0.08,meteohub,2013-03-28 01:36:00,
2013-03-27 18:42:00,52.5,41.2,29.89,NW,315,2.0,6.0,65,0.00,,,0.08,meteohub,2013-03-28 01:42:00,
2013-03-27 18:48:00,52.3,41.0,29.89,NE,45,2.0,6.0,65,0.00,,,0.08,meteohub,2013-03-28 01:48:00,
2013-03-27 18:54:00,52.2,40.8,29.90,South,180,2.0,5.0,65,0.00,,,0.08,meteohub,2013-03-28 01:54:00,
2013-03-27 19:01:00,52.2,40.8,29.91,NW,315,8.0,8.0,65,0.00,,,0.08,meteohub,2013-03-28 02:01:00,
2013-03-27 19:07:00,51.8,39.6,29.91,West,270,3.0,8.0,63,0.00,,,0.08,meteohub,2013-03-28 02:07:00,
2013-03-27 19:12:00,51.6,39.9,29.91,South,180,2.0,8.0,64,0.00,,,0.08,meteohub,2013-03-28 02:12:00,
2013-03-27 19:17:00,51.4,40.1,29.91,East,90,2.0,8.0,65,0.00,,,0.08,meteohub,2013-03-28 02:17:00,
2013-03-27 19:23:00,51.1,39.7,29.91,SW,225,3.0,4.0,65,0.00,,,0.08,meteohub,2013-03-28 02:23:00,
2013-03-27 19:29:00,50.9,39.9,29.91,East,90,2.0,4.0,66,0.00,,,0.08,meteohub,2013-03-28 02:29:00,
2013-03-27 19:35:00,50.5,39.9,29.91,NW,315,2.0,4.0,67,0.00,,,0.08,meteohub,2013-03-28 02:35:00,
2013-03-27 19:41:00,50.4,40.6,29.91,NW,315,3.0,4.0,69,0.00,,,0.08,meteohub,2013-03-28 02:41:00,
2013-03-27 19:47:00,50.2,40.8,29.91,South,180,1.0,4.0,70,0.00,,,0.08,meteohub,2013-03-28 02:47:00,
2013-03-27 19:53:00,49.8,40.8,29.91,NE,45,1.0,4.0,71,0.00,,,0.08,meteohub,2013-03-28 02:53:00,
2013-03-27 19:59:00,49.5,40.8,29.91,NW,315,2.0,4.0,72,0.00,,,0.08,meteohub,2013-03-28 02:59:00,
2013-03-27 20:05:00,49.3,40.6,29.91,NW,315,2.0,4.0,72,0.00,,,0.08,meteohub,2013-03-28 03:05:00,
2013-03-27 20:11:00,49.1,40.8,29.92,NE,45,0.0,4.0,73,0.00,,,0.08,meteohub,2013-03-28 03:11:00,
2013-03-27 20:17:00,48.7,40.5,29.91,NW,315,2.0,4.0,73,0.00,,,0.08,meteohub,2013-03-28 03:17:00,
2013-03-27 20:22:00,48.6,40.3,29.92,West,270,3.0,3.0,73,0.00,,,0.08,meteohub,2013-03-28 03:22:00,
2013-03-27 20:27:00,48.4,40.8,29.92,North,0,2.0,4.0,75,0.00,,,0.08,meteohub,2013-03-28 03:27:00,
2013-03-27 20:33:00,48.2,41.4,29.92,North,0,4.0,4.0,77,0.00,,,0.08,meteohub,2013-03-28 03:33:00,
2013-03-27 20:40:00,48.0,42.1,29.93,NW,315,4.0,4.0,80,0.00,,,0.08,meteohub,2013-03-28 03:40:00,
2013-03-27 20:46:00,47.8,42.6,29.93,NW,315,4.0,6.0,82,0.00,,,0.08,meteohub,2013-03-28 03:46:00,
2013-03-27 20:52:00,47.7,42.4,29.93,NE,45,2.0,6.0,82,0.00,,,0.08,meteohub,2013-03-28 03:52:00,
2013-03-27 20:57:00,47.5,42.6,29.92,North,0,2.0,6.0,83,0.00,,,0.08,meteohub,2013-03-28 03:57:00,
2013-03-27 21:00:00,47.3,42.4,29.93,North,0,2.0,6.0,83,0.00,,,0.08,meteohub,2013-03-28 04:00:00,
2013-03-27 21:02:00,47.1,42.3,29.93,NW,315,2.0,6.0,83,0.00,,,0.08,meteohub,2013-03-28 04:02:00,
2013-03-27 21:07:00,46.9,42.1,29.93,NW,315,2.0,6.0,83,0.00,,,0.08,meteohub,2013-03-28 04:07:00,
2013-03-27 21:08:00,46.9,42.4,29.94,WNW,293,2.0,6.0,84,0.00,,,0.08,meteohub,2013-03-28 04:08:00,
2013-03-27 21:14:00,46.6,42.1,29.94,West,270,1.0,3.0,84,0.00,,,0.08,meteohub,2013-03-28 04:14:00,
2013-03-27 21:20:00,46.2,41.7,29.94,South,180,1.0,3.0,84,0.00,,,0.08,meteohub,2013-03-28 04:20:00,
2013-03-27 21:26:00,45.9,41.4,29.94,South,180,1.0,2.0,84,0.00,,,0.08,meteohub,2013-03-28 04:26:00,
2013-03-27 21:32:00,45.5,41.0,29.94,NE,45,1.0,2.0,84,0.00,,,0.08,meteohub,2013-03-28 04:32:00,
2013-03-27 21:37:00,45.1,40.6,29.95,South,180,1.0,2.0,84,0.00,,,0.08,meteohub,2013-03-28 04:37:00,
2013-03-27 21:42:00,45.0,40.5,29.95,West,270,1.0,2.0,84,0.00,,,0.08,meteohub,2013-03-28 04:42:00,
2013-03-27 21:47:00,44.8,40.5,29.95,SW,225,1.0,2.0,85,0.00,,,0.08,meteohub,2013-03-28 04:47:00,
2013-03-27 21:52:00,44.6,40.5,29.95,East,90,0.0,2.0,85,0.00,,,0.08,meteohub,2013-03-28 04:52:00,
2013-03-27 21:58:00,44.4,40.8,29.95,SW,225,1.0,2.0,87,0.00,,,0.08,meteohub,2013-03-28 04:58:00,
2013-03-27 22:04:00,44.2,40.6,29.95,SW,225,0.0,2.0,87,0.00,,,0.08,meteohub,2013-03-28 05:04:00,
2013-03-27 22:10:00,44.1,40.8,29.95,SW,225,0.0,2.0,88,0.00,,,0.08,meteohub,2013-03-28 05:10:00,
2013-03-27 22:17:00,44.1,40.8,29.95,SW,225,0.0,2.0,88,0.00,,,0.08,meteohub,2013-03-28 05:17:00,
2013-03-27 22:22:00,44.1,41.0,29.95,SW,225,0.0,2.0,89,0.00,,,0.08,meteohub,2013-03-28 05:22:00,
2013-03-27 22:27:00,43.9,40.8,29.95,SW,225,2.0,2.0,89,0.00,,,0.08,meteohub,2013-03-28 05:27:00,
2013-03-27 22:32:00,43.9,40.8,29.95,South,180,1.0,2.0,89,0.00,,,0.08,meteohub,2013-03-28 05:32:00,
2013-03-27 22:37:00,43.9,40.8,29.96,South,180,0.0,2.0,89,0.00,,,0.08,meteohub,2013-03-28 05:37:00,
2013-03-27 22:42:00,43.7,40.6,29.96,South,180,0.0,2.0,89,0.00,,,0.08,meteohub,2013-03-28 05:42:00,
2013-03-27 22:47:00,43.7,40.6,29.96,SW,225,1.0,1.0,89,0.00,,,0.08,meteohub,2013-03-28 05:47:00,
2013-03-27 22:53:00,43.7,41.0,29.96,South,180,0.0,1.0,90,0.00,,,0.08,meteohub,2013-03-28 05:53:00,
2013-03-27 22:59:00,43.7,41.0,29.96,SW,225,0.0,1.0,90,0.00,,,0.08,meteohub,2013-03-28 05:59:00,
2013-03-27 23:05:00,43.7,41.0,29.96,SW,225,1.0,1.0,90,0.00,,,0.08,meteohub,2013-03-28 06:05:00,
2013-03-27 23:11:00,43.7,41.0,29.96,SW,225,1.0,1.0,90,0.00,,,0.08,meteohub,2013-03-28 06:11:00,
2013-03-27 23:17:00,43.9,41.2,29.96,South,180,0.0,1.0,90,0.00,,,0.08,meteohub,2013-03-28 06:17:00,
2013-03-27 23:22:00,43.9,41.2,29.96,NE,45,1.0,2.0,90,0.00,,,0.08,meteohub,2013-03-28 06:22:00,
2013-03-27 23:27:00,43.9,41.4,29.96,North,0,2.0,2.0,91,0.00,,,0.08,meteohub,2013-03-28 06:27:00,
2013-03-27 23:34:00,44.1,41.5,29.96,South,180,1.0,2.0,91,0.00,,,0.08,meteohub,2013-03-28 06:34:00,
2013-03-27 23:40:00,43.9,41.4,29.96,North,0,0.0,2.0,91,0.00,,,0.08,meteohub,2013-03-28 06:40:00,
2013-03-27 23:46:00,43.7,41.2,29.96,North,0,0.0,1.0,91,0.00,,,0.08,meteohub,2013-03-28 06:46:00,
2013-03-27 23:52:00,43.5,40.8,29.96,North,0,0.0,1.0,90,0.00,,,0.08,meteohub,2013-03-28 06:52:00,
2013-03-27 23:57:00,43.3,40.6,29.96,North,0,0.0,1.0,90,0.00,,,0.08,meteohub,2013-03-28 06:57:00,